Time;durP1;ratioP1;P1;durP2;ratioP2;P2;SDS_P1;SDS_P2;PMS_P1;PMS_P2;Temp;Humidity;BMP_temperature;BMP_pressure;BME280_temperature;BME280_humidity;BME280_pressure;Samples;Min_cycle;Max_cycle;Signal;HPM_P1;HPM_P2
2023/04/11 00:01:57;;;;;;;18.90;17.80;;;;;;;;;;5044786;28;20440;-81
2023/04/11 00:04:24;;;;;;;18.00;16.93;;;;;;;;;;5043948;28;20861;-81
2023/04/11 00:06:51;;;;;;;18.23;17.33;;;;;;;;;;5042641;28;20462;-81
2023/04/11 00:09:18;;;;;;;17.80;17.00;;;;;;;;;;5045070;28;20463;-81
2023/04/11 00:11:46;;;;;;;18.10;17.10;;;;;;;;;;5046454;28;20554;-81
2023/04/11 00:14:16;;;;;;;17.73;16.90;;;;;;;;;;5042837;28;20489;-81
2023/04/11 00:16:43;;;;;;;18.33;17.30;;;;;;;;;;5042862;28;20525;-80
2023/04/11 00:19:10;;;;;;;19.17;18.17;;;;;;;;;;5041721;28;20446;-79
2023/04/11 00:21:39;;;;;;;17.73;16.83;;;;;;;;;;5043605;28;20502;-82
2023/04/11 00:24:06;;;;;;;18.00;17.10;;;;;;;;;;5044281;28;20450;-81
2023/04/11 00:26:33;;;;;;;17.90;17.10;;;;;;;;;;5043136;28;20482;-81
2023/04/11 00:29:00;;;;;;;18.53;17.53;;;;;;;;;;5044172;28;20880;-81
2023/04/11 00:31:29;;;;;;;17.17;16.47;;;;;;;;;;5042460;28;20487;-81
2023/04/11 00:33:56;;;;;;;18.70;17.70;;;;;;;;;;5043603;28;20496;-81
2023/04/11 00:36:23;;;;;;;18.70;17.50;;;;;;;;;;5042520;28;20451;-81
2023/04/11 00:38:50;;;;;;;18.20;17.40;;;;;;;;;;5043031;28;20507;-80
2023/04/11 00:41:17;;;;;;;17.50;16.70;;;;;;;;;;5042610;28;20451;-81
2023/04/11 00:43:46;;;;;;;17.80;17.00;;;;;;;;;;5043829;28;20430;-80
2023/04/11 00:46:13;;;;;;;18.47;17.50;;;;;;;;;;5042826;28;20430;-81
2023/04/11 00:48:42;;;;;;;17.40;16.60;;;;;;;;;;5044093;28;20553;-81
2023/04/11 00:51:09;;;;;;;17.77;16.97;;;;;;;;;;5042971;28;20451;-81
2023/04/11 00:53:37;;;;;;;17.30;16.50;;;;;;;;;;5043108;28;20889;-81
2023/04/11 00:56:05;;;;;;;17.93;17.03;;;;;;;;;;5042244;28;20460;-81
2023/04/11 00:58:33;;;;;;;18.20;17.30;;;;;;;;;;5043674;28;20454;-81
2023/04/11 01:01:00;;;;;;;17.50;16.67;;;;;;;;;;5042084;28;21019;-81
2023/04/11 01:03:28;;;;;;;18.10;17.30;;;;;;;;;;5042832;28;20523;-81
2023/04/11 01:05:57;;;;;;;17.90;17.10;;;;;;;;;;5041352;28;20479;-80
2023/04/11 01:08:25;;;;;;;17.83;17.03;;;;;;;;;;5042363;28;20464;-81
2023/04/11 01:10:52;;;;;;;18.00;17.20;;;;;;;;;;5042185;28;20834;-81
2023/04/11 01:13:19;;;;;;;17.43;16.53;;;;;;;;;;5041552;28;20491;-80
2023/04/11 01:15:46;;;;;;;17.70;16.90;;;;;;;;;;5042048;28;20452;-81
2023/04/11 01:18:14;;;;;;;17.63;16.83;;;;;;;;;;5042330;28;20480;-81
2023/04/11 01:20:41;;;;;;;18.10;16.70;;;;;;;;;;5042337;28;20463;-82
2023/04/11 01:23:09;;;;;;;18.20;17.30;;;;;;;;;;5043516;28;20498;-82
2023/04/11 01:25:38;;;;;;;17.33;16.53;;;;;;;;;;5043285;28;20538;-82
2023/04/11 01:28:07;;;;;;;17.25;16.55;;;;;;;;;;5042009;28;20518;-82
2023/04/11 01:30:34;;;;;;;17.70;16.90;;;;;;;;;;5041147;28;20240;-82
2023/04/11 01:33:01;;;;;;;17.00;16.30;;;;;;;;;;5043359;28;20529;-82
2023/04/11 01:35:28;;;;;;;17.93;17.00;;;;;;;;;;5042906;28;20932;-82
2023/04/11 01:37:56;;;;;;;17.70;16.90;;;;;;;;;;5044768;28;20455;-82
2023/04/11 01:40:23;;;;;;;17.30;16.52;;;;;;;;;;5041408;28;20265;-82
2023/04/11 01:42:52;;;;;;;17.87;16.97;;;;;;;;;;5042790;28;20379;-82
2023/04/11 01:45:20;;;;;;;17.73;16.93;;;;;;;;;;5042445;28;20451;-82
2023/04/11 01:47:47;;;;;;;18.10;17.30;;;;;;;;;;5043142;28;20436;-82
2023/04/11 01:50:14;;;;;;;17.50;16.73;;;;;;;;;;5043268;28;20633;-82
2023/04/11 01:52:41;;;;;;;18.00;17.20;;;;;;;;;;5044490;28;20475;-82
2023/04/11 01:55:09;;;;;;;18.70;17.70;;;;;;;;;;5042632;28;20431;-82
2023/04/11 01:57:35;;;;;;;17.33;16.63;;;;;;;;;;5043194;28;20456;-82
2023/04/11 02:00:05;;;;;;;18.40;17.50;;;;;;;;;;5042723;28;20883;-81
2023/04/11 02:02:32;;;;;;;18.98;17.98;;;;;;;;;;5042669;28;20448;-82
2023/04/11 02:04:59;;;;;;;17.17;16.47;;;;;;;;;;5041811;28;20209;-81
2023/04/11 02:07:27;;;;;;;18.80;17.80;;;;;;;;;;5041137;28;20439;-81
2023/04/11 02:09:54;;;;;;;17.97;17.17;;;;;;;;;;5042029;28;20913;-82
2023/04/11 02:12:21;;;;;;;17.70;16.90;;;;;;;;;;5041265;28;20556;-82
2023/04/11 02:14:48;;;;;;;18.33;17.30;;;;;;;;;;5041472;28;20502;-83
2023/04/11 02:17:17;;;;;;;19.13;18.03;;;;;;;;;;5040293;28;20477;-82
2023/04/11 02:19:45;;;;;;;17.27;16.40;;;;;;;;;;5043444;28;20476;-82
2023/04/11 02:22:12;;;;;;;18.43;17.50;;;;;;;;;;5041407;28;20441;-82
2023/04/11 02:24:39;;;;;;;18.67;17.77;;;;;;;;;;5043529;28;20422;-82
2023/04/11 02:27:06;;;;;;;17.90;17.00;;;;;;;;;;5042277;28;20484;-81
2023/04/11 02:29:33;;;;;;;18.50;17.60;;;;;;;;;;5038627;28;20471;-81
2023/04/11 02:32:00;;;;;;;18.35;17.45;;;;;;;;;;5037731;28;20472;-82
2023/04/11 02:34:28;;;;;;;20.20;18.80;;;;;;;;;;5038561;28;20247;-82
2023/04/11 02:36:56;;;;;;;18.23;17.37;;;;;;;;;;5037858;28;20513;-80
2023/04/11 02:39:23;;;;;;;17.70;16.80;;;;;;;;;;5038362;28;20459;-82
2023/04/11 02:41:50;;;;;;;18.03;17.20;;;;;;;;;;5038803;28;20466;-82
2023/04/11 02:44:17;;;;;;;18.97;17.77;;;;;;;;;;5039401;28;20794;-80
2023/04/11 02:46:44;;;;;;;16.87;16.10;;;;;;;;;;5037537;28;20976;-80
2023/04/11 02:49:11;;;;;;;18.00;17.10;;;;;;;;;;5037949;28;20475;-80
2023/04/11 02:51:39;;;;;;;18.83;17.73;;;;;;;;;;5038759;28;20455;-80
2023/04/11 02:54:07;;;;;;;19.83;18.60;;;;;;;;;;5037954;28;20492;-83
2023/04/11 02:56:37;;;;;;;47.17;44.85;;;;;;;;;;5037537;28;20452;-81
2023/04/11 02:59:05;;;;;;;50.83;48.23;;;;;;;;;;5058836;28;20255;-80
2023/04/11 03:01:32;;;;;;;51.07;48.53;;;;;;;;;;5060404;28;20471;-80
2023/04/11 03:03:59;;;;;;;47.80;45.40;;;;;;;;;;5055054;28;20539;-81
2023/04/11 03:06:27;;;;;;;39.67;37.30;;;;;;;;;;5045663;28;20447;-81
2023/04/11 03:08:56;;;;;;;39.72;37.28;;;;;;;;;;5045836;28;20475;-81
2023/04/11 03:11:23;;;;;;;35.55;33.47;;;;;;;;;;5045676;28;20612;-81
2023/04/11 03:13:50;;;;;;;44.72;42.42;;;;;;;;;;5045060;28;20229;-81
2023/04/11 03:16:17;;;;;;;44.73;42.20;;;;;;;;;;5044798;28;20259;-81
2023/04/11 03:18:44;;;;;;;43.17;40.55;;;;;;;;;;5044906;28;20467;-81
2023/04/11 03:21:11;;;;;;;43.92;41.78;;;;;;;;;;5045480;28;20642;-81
2023/04/11 03:23:38;;;;;;;45.45;42.75;;;;;;;;;;5044872;28;20259;-81
2023/04/11 03:26:07;;;;;;;49.25;46.08;;;;;;;;;;5045438;28;20294;-81
2023/04/11 03:28:34;;;;;;;47.50;44.97;;;;;;;;;;5047168;28;20770;-82
2023/04/11 03:31:01;;;;;;;50.90;48.03;;;;;;;;;;5047351;28;20664;-83
2023/04/11 03:33:28;;;;;;;51.90;48.63;;;;;;;;;;5046231;28;20221;-83
2023/04/11 03:35:55;;;;;;;55.95;52.30;;;;;;;;;;5046173;28;20211;-83
2023/04/11 03:38:22;;;;;;;54.03;51.00;;;;;;;;;;5046480;28;20765;-83
2023/04/11 03:40:49;;;;;;;56.40;53.20;;;;;;;;;;5047399;28;20204;-83
2023/04/11 03:43:17;;;;;;;60.63;56.42;;;;;;;;;;5045613;28;20201;-83
2023/04/11 03:45:44;;;;;;;55.92;52.67;;;;;;;;;;5044782;28;20263;-83
2023/04/11 03:48:12;;;;;;;57.78;54.47;;;;;;;;;;5045012;28;20229;-82
2023/04/11 03:50:39;;;;;;;58.15;54.92;;;;;;;;;;5045230;28;20267;-82
2023/04/11 03:53:06;;;;;;;58.00;54.28;;;;;;;;;;5044756;28;20213;-82
2023/04/11 03:55:33;;;;;;;58.30;54.22;;;;;;;;;;5042771;28;20218;-83
2023/04/11 03:58:00;;;;;;;61.38;57.80;;;;;;;;;;5044256;28;20216;-82
2023/04/11 04:00:29;;;;;;;63.13;58.92;;;;;;;;;;5044098;28;20222;-81
2023/04/11 04:02:56;;;;;;;64.80;60.60;;;;;;;;;;5044318;28;20207;-82
2023/04/11 04:05:23;;;;;;;63.75;59.80;;;;;;;;;;5043872;28;20258;-82
2023/04/11 04:07:50;;;;;;;62.67;58.13;;;;;;;;;;5043270;28;20204;-82
2023/04/11 04:10:17;;;;;;;61.30;57.03;;;;;;;;;;5042642;28;20204;-82
2023/04/11 04:12:45;;;;;;;58.95;55.17;;;;;;;;;;5043067;28;20217;-82
2023/04/11 04:15:13;;;;;;;56.53;53.30;;;;;;;;;;5043347;28;20641;-82
2023/04/11 04:17:41;;;;;;;61.57;57.27;;;;;;;;;;5042004;28;20461;-81
2023/04/11 04:20:10;;;;;;;58.30;54.10;;;;;;;;;;5042168;28;20487;-82
2023/04/11 04:22:37;;;;;;;59.03;54.63;;;;;;;;;;5042227;28;20699;-82
2023/04/11 04:25:04;;;;;;;57.60;53.42;;;;;;;;;;5042325;28;20571;-82
2023/04/11 04:27:31;;;;;;;57.83;54.38;;;;;;;;;;5041778;28;20695;-81
2023/04/11 04:29:59;;;;;;;56.55;51.60;;;;;;;;;;5041916;28;20308;-82
2023/04/11 04:32:27;;;;;;;54.78;50.97;;;;;;;;;;5042038;28;20193;-82
2023/04/11 04:34:56;;;;;;;51.40;47.20;;;;;;;;;;5042080;28;20209;-83
2023/04/11 04:37:24;;;;;;;51.38;47.40;;;;;;;;;;5040741;28;20475;-80
2023/04/11 04:40:00;;;;;;;48.92;46.00;;;;;;;;;;5043965;28;20228;-80
2023/04/11 04:42:28;;;;;;;51.40;47.70;;;;;;;;;;5045356;28;20189;-80
2023/04/11 04:44:56;;;;;;;50.08;46.30;;;;;;;;;;5045150;28;20447;-80
2023/04/11 04:47:24;;;;;;;52.63;48.55;;;;;;;;;;5043118;28;20205;-80
2023/04/11 04:49:56;;;;;;;47.27;43.83;;;;;;;;;;5044160;28;20225;-80
2023/04/11 04:52:24;;;;;;;46.97;43.42;;;;;;;;;;5043944;28;20809;-80
2023/04/11 04:54:51;;;;;;;42.92;40.08;;;;;;;;;;5043740;28;20707;-80
2023/04/11 04:57:18;;;;;;;40.25;37.35;;;;;;;;;;5042098;28;20253;-80
2023/04/11 04:59:46;;;;;;;37.90;35.53;;;;;;;;;;5042520;28;20224;-79
2023/04/11 05:02:13;;;;;;;34.30;31.98;;;;;;;;;;5042822;28;20192;-80
2023/04/11 05:04:40;;;;;;;34.55;31.30;;;;;;;;;;5042191;28;20623;-80
2023/04/11 05:07:09;;;;;;;35.78;32.97;;;;;;;;;;5041220;28;20220;-80
2023/04/11 05:09:36;;;;;;;34.63;31.77;;;;;;;;;;5041899;28;20319;-80
2023/04/11 05:12:03;;;;;;;37.20;34.10;;;;;;;;;;5041261;28;20213;-80
2023/04/11 05:14:30;;;;;;;36.25;33.10;;;;;;;;;;5040873;28;20228;-80
2023/04/11 05:16:57;;;;;;;31.53;29.47;;;;;;;;;;5041648;28;20208;-80
2023/04/11 05:19:24;;;;;;;34.40;31.77;;;;;;;;;;5042142;28;20468;-80
2023/04/11 05:21:51;;;;;;;34.08;31.75;;;;;;;;;;5040637;28;20944;-80
2023/04/11 05:24:20;;;;;;;34.53;31.33;;;;;;;;;;5042222;28;20247;-80
2023/04/11 05:26:47;;;;;;;36.80;33.70;;;;;;;;;;5040676;28;20467;-80
2023/04/11 05:29:14;;;;;;;34.78;32.33;;;;;;;;;;5040891;28;20216;-80
2023/04/11 05:31:41;;;;;;;35.38;31.67;;;;;;;;;;5037414;28;20205;-79
2023/04/11 05:34:08;;;;;;;28.60;26.98;;;;;;;;;;5036349;28;20224;-79
2023/04/11 05:36:36;;;;;;;30.48;28.58;;;;;;;;;;5035356;28;20205;-80
2023/04/11 05:39:03;;;;;;;32.05;29.48;;;;;;;;;;5036738;28;20752;-79
2023/04/11 05:41:33;;;;;;;35.80;32.40;;;;;;;;;;5040253;28;20231;-80
2023/04/11 05:44:00;;;;;;;28.60;27.00;;;;;;;;;;5040247;28;20433;-80
2023/04/11 05:46:28;;;;;;;28.67;27.15;;;;;;;;;;5039295;28;20509;-79
2023/04/11 05:48:56;;;;;;;30.52;28.60;;;;;;;;;;5040592;28;20224;-80
2023/04/11 05:51:25;;;;;;;36.38;33.08;;;;;;;;;;5039629;28;20240;-80
2023/04/11 05:53:52;;;;;;;28.73;26.95;;;;;;;;;;5040112;28;20582;-79
2023/04/11 05:56:19;;;;;;;28.87;26.50;;;;;;;;;;5038862;28;20204;-79
2023/04/11 05:58:47;;;;;;;30.08;27.55;;;;;;;;;;5039743;28;20470;-80
2023/04/11 06:01:18;;;;;;;26.58;25.38;;;;;;;;;;5039307;28;20732;-79
2023/04/11 06:03:45;;;;;;;30.45;28.85;;;;;;;;;;5038588;28;20240;-80
2023/04/11 06:06:12;;;;;;;33.45;31.75;;;;;;;;;;5038080;28;20216;-80
2023/04/11 06:08:40;;;;;;;28.98;27.35;;;;;;;;;;5038617;28;20227;-80
2023/04/11 06:11:07;;;;;;;27.52;26.08;;;;;;;;;;5037989;28;20604;-79
2023/04/11 06:13:34;;;;;;;32.55;30.95;;;;;;;;;;5038845;28;20221;-80
2023/04/11 06:16:02;;;;;;;45.10;42.53;;;;;;;;;;5038458;28;20614;-79
2023/04/11 06:18:29;;;;;;;51.80;49.35;;;;;;;;;;5036576;28;20274;-79
2023/04/11 06:20:56;;;;;;;56.72;54.03;;;;;;;;;;5036961;28;20262;-80
2023/04/11 06:23:23;;;;;;;57.20;54.10;;;;;;;;;;5037678;28;20601;-81
2023/04/11 06:25:50;;;;;;;56.65;53.63;;;;;;;;;;5037655;28;20450;-80
2023/04/11 06:28:17;;;;;;;59.73;55.73;;;;;;;;;;5038774;28;20221;-81
2023/04/11 06:30:44;;;;;;;56.87;53.97;;;;;;;;;;5038837;28;20506;-80
2023/04/11 06:33:12;;;;;;;58.97;55.40;;;;;;;;;;5041255;28;20546;-80
2023/04/11 06:35:39;;;;;;;58.70;55.63;;;;;;;;;;5041340;28;20527;-80
2023/04/11 06:38:06;;;;;;;60.13;56.73;;;;;;;;;;5040672;28;20481;-80
2023/04/11 06:40:33;;;;;;;59.13;56.03;;;;;;;;;;5039655;28;20501;-80
2023/04/11 06:43:00;;;;;;;59.60;56.70;;;;;;;;;;5042712;28;20270;-83
2023/04/11 06:45:27;;;;;;;60.17;56.78;;;;;;;;;;5039812;28;20470;-81
2023/04/11 06:47:54;;;;;;;59.23;55.80;;;;;;;;;;5039740;28;20274;-80
2023/04/11 06:50:23;;;;;;;62.53;59.47;;;;;;;;;;5041666;28;20468;-81
2023/04/11 06:52:50;;;;;;;61.10;58.10;;;;;;;;;;5040445;28;20216;-79
2023/04/11 06:55:17;;;;;;;58.63;55.60;;;;;;;;;;5041893;28;20225;-80
2023/04/11 06:57:44;;;;;;;58.78;55.35;;;;;;;;;;5041430;28;20205;-80
2023/04/11 07:00:12;;;;;;;57.50;54.15;;;;;;;;;;5041391;28;20271;-81
2023/04/11 07:02:39;;;;;;;59.17;56.20;;;;;;;;;;5041579;28;20204;-80
2023/04/11 07:05:08;;;;;;;59.63;56.40;;;;;;;;;;5044498;28;20216;-80
2023/04/11 07:07:37;;;;;;;59.20;56.23;;;;;;;;;;5040119;28;20418;-82
2023/04/11 07:10:04;;;;;;;61.40;57.90;;;;;;;;;;5039585;28;20800;-80
2023/04/11 07:12:31;;;;;;;61.60;58.13;;;;;;;;;;5040395;28;20463;-80
2023/04/11 07:14:58;;;;;;;59.30;56.00;;;;;;;;;;5039528;28;20533;-80
2023/04/11 07:17:25;;;;;;;59.45;56.15;;;;;;;;;;5039281;28;20426;-80
2023/04/11 07:19:52;;;;;;;56.85;53.92;;;;;;;;;;5039667;28;20232;-81
2023/04/11 07:22:19;;;;;;;61.60;57.87;;;;;;;;;;5040199;28;20207;-80
2023/04/11 07:24:51;;;;;;;62.03;58.63;;;;;;;;;;5052919;28;20459;-80
2023/04/11 07:27:20;;;;;;;64.03;59.80;;;;;;;;;;5058344;28;20456;-84
2023/04/11 07:29:47;;;;;;;69.40;65.30;;;;;;;;;;5058427;28;20212;-78
2023/04/11 07:32:14;;;;;;;74.97;69.75;;;;;;;;;;5058677;28;20205;-80
2023/04/11 07:34:41;;;;;;;65.83;62.30;;;;;;;;;;5055417;28;20240;-81
2023/04/11 07:37:08;;;;;;;75.43;70.17;;;;;;;;;;5044432;28;20431;-80
2023/04/11 07:39:35;;;;;;;67.13;63.17;;;;;;;;;;5043816;28;20514;-81
2023/04/11 07:42:03;;;;;;;64.80;61.10;;;;;;;;;;5043675;28;20482;-85
2023/04/11 07:44:30;;;;;;;78.43;73.43;;;;;;;;;;5042423;28;20258;-85
2023/04/11 07:46:58;;;;;;;62.22;58.90;;;;;;;;;;5040938;28;20452;-82
2023/04/11 07:49:25;;;;;;;61.55;58.13;;;;;;;;;;5042937;28;20231;-81
2023/04/11 07:51:52;;;;;;;59.90;56.53;;;;;;;;;;5043434;28;20235;-81
2023/04/11 07:54:19;;;;;;;58.10;54.83;;;;;;;;;;5043540;28;20475;-81
2023/04/11 07:56:46;;;;;;;60.20;56.45;;;;;;;;;;5042248;28;20517;-80
2023/04/11 07:59:14;;;;;;;61.97;57.70;;;;;;;;;;5043660;28;20226;-82
2023/04/11 08:01:41;;;;;;;60.53;57.23;;;;;;;;;;5037419;28;20467;-81
2023/04/11 08:04:08;;;;;;;56.00;52.80;;;;;;;;;;5038773;28;20447;-80
2023/04/11 08:06:35;;;;;;;61.53;57.90;;;;;;;;;;5038766;28;20414;-84
2023/04/11 08:09:02;;;;;;;60.60;57.13;;;;;;;;;;5039297;28;20976;-81
2023/04/11 08:11:30;;;;;;;57.38;54.38;;;;;;;;;;5045338;28;20471;-82
2023/04/11 08:13:57;;;;;;;56.90;53.40;;;;;;;;;;5045371;28;20229;-81
2023/04/11 08:16:25;;;;;;;52.87;50.17;;;;;;;;;;5041403;28;20435;-88
2023/04/11 08:18:52;;;;;;;56.80;53.80;;;;;;;;;;5037841;28;20481;-84
2023/04/11 08:21:19;;;;;;;55.97;53.07;;;;;;;;;;5036035;28;20480;-86
2023/04/11 08:23:46;;;;;;;50.30;47.87;;;;;;;;;;5039661;28;20906;-79
2023/04/11 08:26:13;;;;;;;51.17;48.47;;;;;;;;;;5043922;28;20941;-79
2023/04/11 08:28:40;;;;;;;47.37;44.80;;;;;;;;;;5043530;28;20487;-79
2023/04/11 08:31:09;;;;;;;44.60;42.40;;;;;;;;;;5038832;28;20969;-85
2023/04/11 08:33:37;;;;;;;45.60;43.00;;;;;;;;;;5036384;28;20534;-85
2023/04/11 08:36:08;;;;;;;43.93;41.23;;;;;;;;;;5036132;28;20461;-84
2023/04/11 08:38:35;;;;;;;42.60;40.60;;;;;;;;;;5036195;28;20498;-85
2023/04/11 08:41:02;;;;;;;43.13;41.00;;;;;;;;;;5036407;28;20387;-85
2023/04/11 08:43:29;;;;;;;40.43;37.70;;;;;;;;;;5036625;28;20496;-86
2023/04/11 08:45:56;;;;;;;39.77;37.93;;;;;;;;;;5039402;28;20513;-80
2023/04/11 08:48:24;;;;;;;38.73;36.77;;;;;;;;;;5042128;28;20472;-80
2023/04/11 08:50:53;;;;;;;38.00;35.60;;;;;;;;;;5040434;28;20450;-79
2023/04/11 08:53:23;;;;;;;34.87;32.80;;;;;;;;;;5041256;28;20451;-80
2023/04/11 08:55:50;;;;;;;32.17;30.30;;;;;;;;;;5039378;28;20848;-80
2023/04/11 08:58:17;;;;;;;32.40;30.43;;;;;;;;;;5040739;28;20438;-79
2023/04/11 09:00:44;;;;;;;27.97;26.57;;;;;;;;;;5039046;28;20418;-80
2023/04/11 09:03:12;;;;;;;28.93;27.43;;;;;;;;;;5040234;28;20471;-78
2023/04/11 09:05:40;;;;;;;25.70;24.27;;;;;;;;;;5039363;28;20471;-78
2023/04/11 09:08:09;;;;;;;22.43;21.23;;;;;;;;;;5038251;28;20418;-79
2023/04/11 09:10:37;;;;;;;22.33;20.93;;;;;;;;;;5039235;28;20986;-79
2023/04/11 09:13:19;;;;;;;24.17;22.33;;;;;;;;;;5039711;28;20473;-85
2023/04/11 09:15:46;;;;;;;23.00;21.60;;;;;;;;;;5038016;28;20457;-80
2023/04/11 09:18:19;;;;;;;23.40;22.00;;;;;;;;;;5038737;28;20471;-79
2023/04/11 09:20:59;;;;;;;21.73;20.53;;;;;;;;;;5039387;28;20923;-79
2023/04/11 09:23:27;;;;;;;22.20;21.00;;;;;;;;;;5039208;28;20900;-79
2023/04/11 09:25:54;;;;;;;24.37;22.20;;;;;;;;;;5038476;28;20458;-79
2023/04/11 09:28:21;;;;;;;21.67;20.53;;;;;;;;;;5038515;28;20468;-79
2023/04/11 09:30:50;;;;;;;22.07;20.77;;;;;;;;;;5038942;28;20451;-79
2023/04/11 09:33:19;;;;;;;21.03;19.67;;;;;;;;;;5040658;28;20422;-79
2023/04/11 09:35:48;;;;;;;21.37;19.73;;;;;;;;;;5039000;28;20811;-78
2023/04/11 09:38:15;;;;;;;20.47;19.27;;;;;;;;;;5039296;28;20474;-79
2023/04/11 09:40:43;;;;;;;20.10;18.90;;;;;;;;;;5038720;28;20459;-79
2023/04/11 09:43:11;;;;;;;21.77;20.43;;;;;;;;;;5039187;28;20482;-79
2023/04/11 09:45:38;;;;;;;21.53;20.23;;;;;;;;;;5038004;28;20414;-79
2023/04/11 09:48:05;;;;;;;21.57;20.37;;;;;;;;;;5038020;28;20434;-79
2023/04/11 09:50:33;;;;;;;22.23;20.77;;;;;;;;;;5038139;28;20460;-79
2023/04/11 09:53:00;;;;;;;22.07;20.47;;;;;;;;;;5038475;28;20455;-79
2023/04/11 09:55:27;;;;;;;21.53;20.33;;;;;;;;;;5037828;28;20454;-79
2023/04/11 09:57:55;;;;;;;22.63;21.13;;;;;;;;;;5036775;28;20452;-79
2023/04/11 10:00:23;;;;;;;23.23;21.17;;;;;;;;;;5037899;28;20545;-79
2023/04/11 10:02:52;;;;;;;23.07;21.57;;;;;;;;;;5038067;28;20458;-79
2023/04/11 10:05:20;;;;;;;21.63;20.43;;;;;;;;;;5038357;28;20454;-79
2023/04/11 10:07:48;;;;;;;24.33;22.30;;;;;;;;;;5039900;28;20509;-79
2023/04/11 10:10:19;;;;;;;22.30;21.10;;;;;;;;;;5041913;28;20965;-80
2023/04/11 10:12:47;;;;;;;21.77;20.50;;;;;;;;;;5041438;28;20826;-79
2023/04/11 10:15:15;;;;;;;23.17;21.50;;;;;;;;;;5042086;28;20462;-79
2023/04/11 10:17:43;;;;;;;23.43;22.03;;;;;;;;;;5041215;28;20422;-79
2023/04/11 10:20:29;;;;;;;23.50;21.77;;;;;;;;;;5040714;28;20470;-79
2023/04/11 10:23:00;;;;;;;23.23;21.50;;;;;;;;;;5035163;28;20892;-79
2023/04/11 10:25:28;;;;;;;23.20;21.90;;;;;;;;;;5045220;28;20444;-79
2023/04/11 10:27:59;;;;;;;22.93;21.43;;;;;;;;;;5045895;28;20455;-79
2023/04/11 10:30:41;;;;;;;23.43;21.70;;;;;;;;;;5044553;28;20410;-79
2023/04/11 10:33:13;;;;;;;24.37;22.30;;;;;;;;;;5040438;28;20422;-79
2023/04/11 10:35:55;;;;;;;22.23;20.80;;;;;;;;;;5041084;28;20457;-79
2023/04/11 10:38:42;;;;;;;23.27;21.73;;;;;;;;;;5042061;28;20455;-79
2023/04/11 10:41:15;;;;;;;20.40;19.30;;;;;;;;;;5041655;28;20932;-79
2023/04/11 10:43:42;;;;;;;21.70;20.27;;;;;;;;;;5041706;28;20449;-79
2023/04/11 10:46:19;;;;;;;22.10;20.70;;;;;;;;;;5040878;28;20858;-80
2023/04/11 10:49:00;;;;;;;23.37;21.67;;;;;;;;;;5039728;28;20449;-79
2023/04/11 10:51:28;;;;;;;22.87;21.37;;;;;;;;;;5040041;28;20451;-79
2023/04/11 10:53:57;;;;;;;23.63;22.07;;;;;;;;;;5040848;28;20445;-79
2023/04/11 10:56:44;;;;;;;22.13;20.83;;;;;;;;;;5037496;28;20976;-82
2023/04/11 10:59:45;;;;;;;23.40;21.57;;;;;;;;;;5039320;28;21065;-79
2023/04/11 11:02:12;;;;;;;21.77;20.57;;;;;;;;;;5038408;28;20425;-79
2023/04/11 11:04:41;;;;;;;23.00;21.60;;;;;;;;;;5038804;28;20430;-79
2023/04/11 11:07:12;;;;;;;21.93;20.73;;;;;;;;;;5038506;28;20761;-79
2023/04/11 11:09:40;;;;;;;22.30;20.77;;;;;;;;;;5039536;28;20456;-79
2023/04/11 11:12:07;;;;;;;22.33;21.03;;;;;;;;;;5039296;28;20443;-79
2023/04/11 11:14:34;;;;;;;23.63;22.00;;;;;;;;;;5039614;28;20513;-79
2023/04/11 11:17:02;;;;;;;22.03;20.50;;;;;;;;;;5040373;28;20455;-79
2023/04/11 11:19:29;;;;;;;22.70;21.33;;;;;;;;;;5039197;28;21025;-79
2023/04/11 11:22:02;;;;;;;22.67;21.17;;;;;;;;;;5040669;28;20450;-78
2023/04/11 11:24:29;;;;;;;20.70;19.50;;;;;;;;;;5041990;28;20440;-79
2023/04/11 11:26:56;;;;;;;22.57;20.73;;;;;;;;;;5041370;28;20442;-79
2023/04/11 11:29:30;;;;;;;23.13;21.67;;;;;;;;;;5040554;28;20520;-79
2023/04/11 11:31:57;;;;;;;21.60;20.33;;;;;;;;;;5040090;28;20821;-79
2023/04/11 11:34:28;;;;;;;24.23;22.47;;;;;;;;;;5040140;28;20426;-79
2023/04/11 11:36:56;;;;;;;23.80;22.40;;;;;;;;;;5040834;28;20481;-79
2023/04/11 11:39:24;;;;;;;23.00;21.70;;;;;;;;;;5039933;28;20533;-79
2023/04/11 11:41:52;;;;;;;24.83;23.07;;;;;;;;;;5040095;28;20426;-78
2023/04/11 11:44:22;;;;;;;24.13;22.53;;;;;;;;;;5038901;28;20442;-78
2023/04/11 11:47:01;;;;;;;23.93;22.50;;;;;;;;;;5039016;28;20425;-79
2023/04/11 11:49:28;;;;;;;24.30;22.80;;;;;;;;;;5039519;28;20438;-79
2023/04/11 11:51:55;;;;;;;23.93;22.33;;;;;;;;;;5040330;28;20521;-79
2023/04/11 11:54:22;;;;;;;22.83;21.53;;;;;;;;;;5039694;28;20441;-79
2023/04/11 11:56:52;;;;;;;23.33;21.83;;;;;;;;;;5038837;28;20479;-79
2023/04/11 11:59:27;;;;;;;23.40;21.90;;;;;;;;;;5039542;28;20442;-79
2023/04/11 12:01:54;;;;;;;23.97;22.27;;;;;;;;;;5039232;28;20428;-79
2023/04/11 12:04:21;;;;;;;24.03;22.53;;;;;;;;;;5039720;28;20422;-78
2023/04/11 12:06:49;;;;;;;24.47;22.70;;;;;;;;;;5039563;28;20888;-78
2023/04/11 12:09:16;;;;;;;23.93;22.00;;;;;;;;;;5040189;28;20976;-79
2023/04/11 12:11:44;;;;;;;22.60;21.20;;;;;;;;;;5044046;28;20452;-79
2023/04/11 12:14:22;;;;;;;24.53;22.80;;;;;;;;;;5040463;28;20448;-78
2023/04/11 12:16:53;;;;;;;23.40;22.00;;;;;;;;;;5043396;28;20509;-79
2023/04/11 12:19:20;;;;;;;22.50;20.87;;;;;;;;;;5044107;28;20473;-79
2023/04/11 12:21:47;;;;;;;25.43;23.60;;;;;;;;;;5044562;28;20457;-80
2023/04/11 12:24:14;;;;;;;24.67;22.97;;;;;;;;;;5042785;28;20448;-84
2023/04/11 12:26:41;;;;;;;24.20;22.47;;;;;;;;;;5037378;28;20499;-86
2023/04/11 12:29:08;;;;;;;25.27;23.60;;;;;;;;;;5046128;28;20471;-80
2023/04/11 12:31:36;;;;;;;24.33;22.73;;;;;;;;;;5045693;28;20447;-80
2023/04/11 12:34:03;;;;;;;24.50;22.80;;;;;;;;;;5045937;28;20447;-80
2023/04/11 12:36:32;;;;;;;23.67;22.00;;;;;;;;;;5044948;28;20506;-80
2023/04/11 12:38:59;;;;;;;23.90;22.50;;;;;;;;;;5044775;28;20506;-80
2023/04/11 12:41:26;;;;;;;24.93;23.20;;;;;;;;;;5044445;28;20430;-80
2023/04/11 12:43:53;;;;;;;23.77;22.47;;;;;;;;;;5042545;28;20952;-80
2023/04/11 12:46:20;;;;;;;24.50;23.00;;;;;;;;;;5041598;28;20425;-80
2023/04/11 12:48:49;;;;;;;24.90;23.23;;;;;;;;;;5041597;28;20464;-80
2023/04/11 12:51:16;;;;;;;24.80;23.37;;;;;;;;;;5041596;28;20437;-80
2023/04/11 12:53:43;;;;;;;23.00;21.60;;;;;;;;;;5041351;28;20451;-80
2023/04/11 12:56:10;;;;;;;23.03;21.50;;;;;;;;;;5043264;28;20451;-80
2023/04/11 12:58:37;;;;;;;23.73;21.93;;;;;;;;;;5043644;28;20983;-80
2023/04/11 13:01:05;;;;;;;23.60;22.10;;;;;;;;;;5041868;28;20940;-80
2023/04/11 13:03:32;;;;;;;23.70;21.70;;;;;;;;;;5042019;28;20990;-80
2023/04/11 13:06:00;;;;;;;23.93;22.33;;;;;;;;;;5040148;28;20452;-80
2023/04/11 13:08:27;;;;;;;24.40;23.00;;;;;;;;;;5040427;28;20442;-80
2023/04/11 13:10:54;;;;;;;23.80;22.20;;;;;;;;;;5040367;28;20456;-80
2023/04/11 13:13:21;;;;;;;23.63;22.07;;;;;;;;;;5041260;28;20451;-80
2023/04/11 13:15:48;;;;;;;23.30;21.73;;;;;;;;;;5040432;28;20881;-80
2023/04/11 13:18:15;;;;;;;23.63;22.30;;;;;;;;;;5041043;28;20446;-79
2023/04/11 13:20:42;;;;;;;24.20;22.70;;;;;;;;;;5041348;28;20430;-80
2023/04/11 13:23:10;;;;;;;23.70;22.40;;;;;;;;;;5043928;28;20518;-80
2023/04/11 13:25:37;;;;;;;23.37;22.00;;;;;;;;;;5044439;28;20457;-80
2023/04/11 13:28:05;;;;;;;23.20;21.90;;;;;;;;;;5045350;28;20414;-80
2023/04/11 13:30:32;;;;;;;22.70;21.40;;;;;;;;;;5044742;28;20453;-79
2023/04/11 13:32:59;;;;;;;23.70;22.30;;;;;;;;;;5043706;28;20430;-80
2023/04/11 13:35:26;;;;;;;24.73;23.17;;;;;;;;;;5043787;28;20928;-80
2023/04/11 13:37:53;;;;;;;26.00;24.40;;;;;;;;;;5043492;28;20467;-80
2023/04/11 13:40:21;;;;;;;24.07;22.67;;;;;;;;;;5042562;28;20429;-80
2023/04/11 13:42:48;;;;;;;23.13;21.63;;;;;;;;;;5042714;28;20430;-81
2023/04/11 13:45:15;;;;;;;23.50;22.20;;;;;;;;;;5043326;28;20885;-80
2023/04/11 13:47:43;;;;;;;25.70;24.10;;;;;;;;;;5043080;28;20776;-80
2023/04/11 13:50:11;;;;;;;24.23;22.50;;;;;;;;;;5042186;28;20449;-80
2023/04/11 13:52:38;;;;;;;24.13;22.63;;;;;;;;;;5042890;28;20445;-80
2023/04/11 13:55:05;;;;;;;23.63;22.07;;;;;;;;;;5040853;28;20482;-81
2023/04/11 13:57:34;;;;;;;24.10;22.70;;;;;;;;;;5039502;28;20450;-80
2023/04/11 14:00:03;;;;;;;23.50;21.77;;;;;;;;;;5040933;28;20430;-80
2023/04/11 14:02:30;;;;;;;23.80;22.30;;;;;;;;;;5038736;28;20465;-78
2023/04/11 14:04:57;;;;;;;22.80;21.60;;;;;;;;;;5035351;28;20486;-77
2023/04/11 14:07:24;;;;;;;24.03;22.47;;;;;;;;;;5034655;28;20443;-82
2023/04/11 14:09:51;;;;;;;23.53;21.83;;;;;;;;;;5037218;28;20493;-78
2023/04/11 14:12:18;;;;;;;23.73;22.23;;;;;;;;;;5035296;28;20418;-78
2023/04/11 14:14:47;;;;;;;23.57;22.17;;;;;;;;;;5035270;28;20557;-78
2023/04/11 14:17:14;;;;;;;22.70;21.40;;;;;;;;;;5035617;28;20462;-78
2023/04/11 14:19:41;;;;;;;23.50;22.10;;;;;;;;;;5036489;28;20548;-78
2023/04/11 14:22:08;;;;;;;23.20;21.87;;;;;;;;;;5036707;28;20435;-79